createdAt,value
2019-04-22T00:01:56.998Z,42.91
2019-04-22T00:04:45.029Z,43.19
2019-04-22T00:07:30.638Z,43.08
2019-04-22T00:12:47.343Z,43.50
2019-04-22T00:15:15.217Z,43.92
2019-04-22T00:18:05.480Z,43.73
2019-04-22T00:20:33.621Z,44.25
2019-04-22T00:23:03.773Z,44.25
2019-04-22T00:25:49.344Z,44.45
2019-04-22T00:28:39.339Z,44.58
2019-04-22T00:30:56.162Z,44.43
2019-04-22T00:33:29.054Z,45.17
2019-04-22T00:36:04.331Z,44.89
2019-04-22T00:38:38.669Z,45.65
2019-04-22T00:41:14.947Z,45.20
2019-04-22T00:43:51.101Z,45.55
2019-04-22T00:46:25.117Z,45.80
2019-04-22T00:49:48.977Z,45.71
2019-04-22T00:51:44.907Z,46.34
2019-04-22T00:54:08.705Z,46.31
2019-04-22T00:56:48.226Z,46.92
2019-04-22T00:59:23.365Z,47.04
2019-04-22T01:02:01.930Z,46.82
2019-04-22T01:07:06.073Z,47.25
2019-04-22T01:09:46.532Z,47.30
2019-04-22T01:12:28.437Z,47.33
2019-04-22T01:15:00.394Z,47.64
2019-04-22T01:17:34.384Z,47.62
2019-04-22T01:20:23.899Z,47.65
2019-04-22T01:22:45.456Z,48.09
2019-04-22T01:25:19.136Z,48.70
2019-04-22T01:27:52.823Z,48.58
2019-04-22T01:30:24.412Z,48.55
2019-04-22T01:32:53.916Z,49.14
2019-04-22T01:35:41.280Z,49.50
2019-04-22T01:38:21.823Z,49.20
2019-04-22T01:41:07.214Z,49.75
2019-04-22T01:43:46.208Z,49.64
2019-04-22T01:46:16.387Z,49.94
2019-04-22T01:48:47.726Z,49.88
2019-04-22T01:51:35.462Z,49.86
2019-04-22T01:54:05.175Z,49.85
2019-04-22T01:56:34.920Z,49.63
2019-04-22T01:58:59.356Z,49.84
2019-04-22T02:01:50.992Z,50.04
2019-04-22T02:04:26.898Z,49.99
2019-04-22T02:06:57.542Z,50.36
2019-04-22T02:09:38.621Z,50.37
2019-04-22T02:12:13.132Z,50.94
2019-04-22T02:14:53.910Z,51.09
2019-04-22T02:17:26.718Z,50.75
2019-04-22T02:20:04.057Z,51.32
2019-04-22T02:23:27.112Z,51.37
2019-04-22T02:25:34.621Z,51.74
2019-04-22T02:28:16.993Z,52.28
2019-04-22T02:31:05.037Z,52.31
2019-04-22T02:38:51.867Z,53.52
2019-04-22T02:41:22.740Z,52.96
2019-04-22T02:44:02.086Z,53.12
2019-04-22T02:46:49.406Z,53.07
2019-04-22T02:51:32.759Z,53.44
2019-04-22T02:56:54.287Z,54.23
2019-04-22T02:59:34.974Z,54.46
2019-04-22T03:02:11.988Z,54.29
2019-04-22T03:04:48.527Z,53.83
2019-04-22T03:07:29.328Z,54.16
2019-04-22T03:09:57.871Z,54.22
2019-04-22T03:12:35.259Z,54.86
2019-04-22T03:15:07.852Z,54.89
2019-04-22T03:17:47.347Z,54.71
2019-04-22T03:20:41.947Z,55.08
2019-04-22T03:23:11.605Z,55.64
2019-04-22T03:28:10.322Z,55.79
2019-04-22T03:31:34.430Z,56.18
2019-04-22T03:34:39.391Z,56.43
2019-04-22T03:39:29.812Z,56.62
2019-04-22T03:42:02.522Z,57.07
2019-04-22T03:47:11.574Z,57.36
2019-04-22T03:52:10.809Z,57.69
2019-04-22T03:59:59.383Z,58.04
2019-04-22T04:05:10.814Z,58.40
2019-04-22T04:08:12.111Z,58.03
2019-04-22T04:13:05.520Z,58.28
2019-04-22T04:15:29.929Z,57.81
2019-04-22T04:18:13.873Z,57.99
2019-04-22T04:23:31.248Z,58.26
2019-04-22T04:25:52.686Z,58.27
2019-04-22T04:31:19.506Z,57.29
2019-04-22T04:39:00.657Z,57.83
2019-04-22T04:41:42.677Z,58.07
2019-04-22T04:44:23.481Z,58.17
2019-04-22T04:46:51.966Z,58.29
2019-04-22T04:49:25.946Z,58.09
2019-04-22T04:52:16.615Z,58.16
2019-04-22T04:57:16.938Z,57.37
2019-04-22T05:00:13.238Z,57.00
2019-04-22T05:05:08.317Z,56.30
2019-04-22T05:07:44.306Z,55.92
2019-04-22T05:10:34.882Z,55.55
2019-04-22T05:13:14.478Z,55.11
2019-04-22T05:15:43.175Z,54.43
2019-04-22T05:18:12.547Z,54.00
2019-04-22T05:20:59.733Z,53.66
2019-04-22T05:23:24.916Z,53.32
2019-04-22T05:26:04.216Z,52.79
2019-04-22T05:28:35.315Z,52.17
2019-04-22T05:31:16.181Z,51.07
2019-04-22T05:33:48.231Z,51.11
2019-04-22T05:36:28.339Z,51.07
2019-04-22T05:39:06.064Z,49.95
2019-04-22T05:41:45.988Z,49.58
2019-04-22T05:44:26.311Z,49.52
2019-04-22T05:46:56.245Z,49.06
2019-04-22T05:49:45.876Z,48.82
2019-04-22T05:52:10.791Z,48.69
2019-04-22T05:54:42.778Z,48.85
2019-04-22T05:57:17.907Z,48.20
2019-04-22T06:00:01.601Z,47.63
2019-04-22T06:02:48.751Z,47.21
2019-04-22T06:05:11.902Z,46.91
2019-04-22T06:07:45.699Z,46.73
2019-04-22T06:10:29.342Z,46.92
2019-04-22T06:13:01.059Z,46.61
2019-04-22T06:15:33.906Z,46.74
2019-04-22T06:21:03.751Z,46.19
2019-04-22T06:23:35.948Z,45.59
2019-04-22T06:28:50.087Z,45.56
2019-04-22T06:31:37.228Z,45.86
2019-04-22T06:34:10.311Z,47.03
2019-04-22T06:36:47.701Z,47.31
2019-04-22T06:39:21.139Z,47.27
2019-04-22T06:41:58.927Z,47.10
2019-04-22T06:44:32.309Z,46.55
2019-04-22T06:47:10.560Z,46.75
2019-04-22T06:49:46.640Z,47.29
2019-04-22T06:55:11.492Z,45.56
2019-04-22T06:57:37.008Z,45.51
2019-04-22T07:00:17.423Z,45.37
2019-04-22T07:03:18.972Z,45.34
2019-04-22T07:08:39.387Z,45.20
2019-04-22T07:13:51.756Z,45.60
2019-04-22T07:16:30.206Z,45.17
2019-04-22T07:19:05.649Z,45.12
2019-04-22T07:21:53.111Z,45.84
2019-04-22T07:24:58.286Z,46.60
2019-04-22T07:27:46.029Z,47.29
2019-04-22T07:30:55.546Z,47.16
2019-04-22T07:33:34.883Z,47.60
2019-04-22T07:36:33.498Z,47.09
2019-04-22T07:38:50.742Z,47.71
2019-04-22T07:41:27.076Z,48.49
2019-04-22T07:46:56.592Z,48.19
2019-04-22T07:49:33.974Z,47.28
2019-04-22T07:52:03.675Z,46.90
2019-04-22T07:54:41.422Z,47.26
2019-04-22T07:57:19.925Z,47.21
2019-04-22T07:59:57.172Z,46.63
2019-04-22T08:02:37.476Z,46.36
2019-04-22T08:05:20.681Z,46.88
2019-04-22T08:07:43.489Z,45.65
2019-04-22T08:13:05.443Z,46.43
2019-04-22T08:15:48.601Z,46.33
2019-04-22T08:18:21.944Z,45.99
2019-04-22T08:20:56.801Z,46.78
2019-04-22T08:23:36.792Z,47.10
2019-04-22T08:26:05.479Z,47.89
2019-04-22T08:28:53.303Z,47.63
2019-04-22T08:34:01.924Z,48.09
2019-04-22T08:36:50.781Z,47.73
2019-04-22T08:39:18.870Z,47.68
2019-04-22T08:41:43.774Z,48.40
2019-04-22T08:47:11.206Z,49.49
2019-04-22T08:49:50.493Z,50.33
2019-04-22T08:54:57.522Z,50.92
2019-04-22T08:57:40.725Z,50.29
2019-04-22T09:00:03.975Z,50.88
2019-04-22T09:02:41.613Z,51.39
2019-04-22T09:05:22.815Z,51.15
2019-04-22T09:07:49.800Z,51.02
2019-04-22T09:10:36.182Z,51.15
2019-04-22T09:15:34.355Z,50.64
2019-04-22T09:18:17.236Z,50.82
2019-04-22T09:21:04.733Z,51.12
2019-04-22T09:23:32.331Z,50.55
2019-04-22T09:26:02.936Z,50.64
2019-04-22T09:28:48.778Z,50.18
2019-04-22T09:31:11.458Z,50.27
2019-04-22T09:33:43.053Z,50.02
2019-04-22T09:36:29.034Z,50.60
2019-04-22T09:39:12.138Z,50.67
2019-04-22T09:44:12.885Z,49.79
2019-04-22T09:49:51.932Z,48.18
2019-04-22T09:52:22.486Z,48.28
2019-04-22T09:55:06.084Z,46.66
2019-04-22T09:57:43.166Z,47.14
2019-04-22T10:00:15.512Z,46.79
2019-04-22T10:02:55.432Z,46.04
2019-04-22T10:05:28.895Z,45.93
2019-04-22T10:09:02.248Z,47.05
2019-04-22T10:12:32.512Z,46.00
2019-04-22T10:15:23.361Z,45.21
2019-04-22T10:17:57.936Z,43.74
2019-04-22T10:20:38.762Z,45.25
2019-04-22T10:23:17.656Z,45.31
2019-04-22T10:25:54.447Z,43.60
2019-04-22T10:28:32.774Z,43.33
2019-04-22T10:31:21.877Z,43.40
2019-04-22T10:33:30.883Z,42.86
2019-04-22T10:35:51.816Z,41.17
2019-04-22T10:38:28.385Z,41.93
2019-04-22T10:41:02.795Z,42.84
2019-04-22T10:43:45.270Z,42.00
2019-04-22T10:46:19.871Z,41.19
2019-04-22T10:48:54.655Z,41.44
2019-04-22T10:51:40.434Z,39.80
2019-04-22T10:54:13.876Z,40.36
2019-04-22T10:56:48.784Z,39.94
2019-04-22T10:59:24.689Z,39.81
2019-04-22T11:02:01.368Z,40.19
2019-04-22T11:04:38.611Z,38.99
2019-04-22T11:07:15.380Z,38.56
2019-04-22T11:09:59.242Z,38.61
2019-04-22T11:12:29.977Z,38.41
2019-04-22T11:15:28.572Z,38.87
2019-04-22T11:18:31.631Z,39.54
2019-04-22T11:22:03.748Z,38.06
2019-04-22T11:24:30.701Z,38.08
2019-04-22T11:27:05.318Z,38.51
2019-04-22T11:30:07.999Z,38.48
2019-04-22T11:33:20.632Z,37.92
2019-04-22T11:36:30.622Z,37.92
2019-04-22T11:39:42.785Z,38.46
2019-04-22T11:42:41.525Z,37.77
2019-04-22T11:45:47.249Z,38.27
2019-04-22T11:48:26.924Z,38.26
2019-04-22T11:51:00.298Z,38.94
2019-04-22T11:53:34.616Z,38.33
2019-04-22T11:56:32.527Z,38.76
2019-04-22T11:59:36.313Z,38.56
2019-04-22T12:02:42.929Z,38.57
2019-04-22T12:05:21.543Z,37.84
2019-04-22T12:07:55.261Z,37.41
2019-04-22T12:10:36.631Z,37.93
2019-04-22T12:13:04.422Z,38.08
2019-04-22T12:15:37.676Z,37.28
2019-04-22T12:18:13.072Z,37.35
2019-04-22T12:20:47.444Z,36.94
2019-04-22T12:23:21.169Z,36.74
2019-04-22T12:26:04.148Z,37.57
2019-04-22T12:28:33.077Z,37.55
2019-04-22T12:31:37.835Z,37.16
2019-04-22T12:34:44.351Z,36.35
2019-04-22T12:37:52.895Z,37.46
2019-04-22T12:40:30.107Z,37.92
2019-04-22T12:42:55.483Z,38.67
2019-04-22T12:45:34.201Z,37.59
2019-04-22T12:48:10.255Z,37.61
2019-04-22T12:50:52.719Z,37.50
2019-04-22T12:53:28.082Z,37.58
2019-04-22T12:56:02.913Z,36.25
2019-04-22T12:58:37.832Z,37.18
2019-04-22T13:01:12.824Z,36.21
2019-04-22T13:03:46.571Z,37.70
2019-04-22T13:06:19.922Z,36.82
2019-04-22T13:08:54.482Z,36.93
2019-04-22T13:11:32.229Z,37.31
2019-04-22T13:14:04.960Z,36.86
2019-04-22T13:16:40.733Z,37.25
2019-04-22T13:19:19.353Z,36.94
2019-04-22T13:21:54.427Z,36.82
2019-04-22T13:24:28.119Z,37.03
2019-04-22T13:27:01.389Z,36.90
2019-04-22T13:29:35.079Z,36.62
2019-04-22T13:32:08.985Z,36.86
2019-04-22T13:34:49.194Z,37.16
2019-04-22T13:37:19.212Z,37.54
2019-04-22T13:39:52.920Z,36.23
2019-04-22T13:42:27.540Z,35.30
2019-04-22T13:45:01.969Z,36.19
2019-04-22T13:47:55.754Z,35.21
2019-04-22T13:50:49.466Z,35.66
2019-04-22T13:53:28.877Z,35.43
2019-04-22T13:58:12.381Z,36.35
2019-04-22T14:00:34.439Z,36.22
2019-04-22T14:03:29.013Z,36.22
2019-04-22T14:06:02.716Z,35.89
2019-04-22T14:08:37.560Z,36.20
2019-04-22T14:11:23.369Z,36.65
2019-04-22T14:13:46.327Z,37.13
2019-04-22T14:16:22.706Z,36.21
2019-04-22T14:18:56.106Z,35.74
2019-04-22T14:21:30.606Z,36.81
2019-04-22T14:24:04.931Z,36.50
2019-04-22T14:26:52.403Z,37.34
2019-04-22T14:29:17.495Z,36.89
2019-04-22T14:32:02.871Z,36.93
2019-04-22T14:34:26.924Z,37.35
2019-04-22T14:37:11.882Z,37.85
2019-04-22T14:39:51.690Z,37.77
2019-04-22T14:42:44.028Z,37.59
2019-04-22T14:48:02.701Z,36.87
2019-04-22T14:50:34.081Z,37.31
2019-04-22T14:53:08.205Z,37.37
2019-04-22T14:55:27.480Z,37.52
2019-04-22T14:57:59.144Z,37.62
2019-04-22T15:00:33.945Z,37.89
2019-04-22T15:03:08.198Z,37.80
2019-04-22T15:05:42.018Z,37.81
2019-04-22T15:08:15.515Z,37.56
2019-04-22T15:10:49.725Z,37.41
2019-04-22T15:13:23.414Z,37.56
2019-04-22T15:16:21.077Z,36.89
2019-04-22T15:19:07.744Z,36.56
2019-04-22T15:21:42.931Z,36.76
2019-04-22T15:24:27.566Z,37.17
2019-04-22T15:27:04.561Z,37.60
2019-04-22T15:29:39.081Z,37.74
2019-04-22T15:32:13.537Z,38.37
2019-04-22T15:34:47.113Z,38.71
2019-04-22T15:37:22.209Z,38.51
2019-04-22T15:39:56.799Z,37.50
2019-04-22T15:42:35.584Z,36.95
2019-04-22T15:45:08.441Z,37.00
2019-04-22T15:47:41.809Z,37.28
2019-04-22T15:50:16.217Z,38.14
2019-04-22T15:52:53.775Z,37.91
2019-04-22T15:55:26.800Z,38.33
2019-04-22T15:58:01.610Z,38.34
2019-04-22T16:00:44.445Z,38.48
2019-04-22T16:03:12.493Z,38.27
2019-04-22T16:05:46.122Z,38.36
2019-04-22T16:08:21.151Z,37.95
2019-04-22T16:10:55.867Z,38.40
2019-04-22T16:13:32.402Z,37.85
2019-04-22T16:16:04.795Z,37.96
2019-04-22T16:18:38.211Z,38.57
2019-04-22T16:21:13.090Z,39.00
2019-04-22T16:23:56.722Z,38.96
2019-04-22T16:27:06.950Z,38.34
2019-04-22T16:29:41.210Z,38.38
2019-04-22T16:32:15.641Z,38.43
2019-04-22T16:34:49.922Z,38.52
2019-04-22T16:37:25.070Z,38.37
2019-04-22T16:39:58.889Z,38.60
2019-04-22T16:42:41.307Z,38.69
2019-04-22T16:45:09.453Z,39.38
2019-04-22T16:47:43.978Z,39.45
2019-04-22T16:50:18.576Z,39.38
2019-04-22T16:52:52.399Z,39.41
2019-04-22T16:55:26.559Z,39.75
2019-04-22T16:58:01.041Z,39.95
2019-04-22T17:00:34.563Z,39.85
2019-04-22T17:03:31.196Z,39.98
2019-04-22T17:06:14.424Z,40.10
2019-04-22T17:08:48.677Z,39.59
2019-04-22T17:11:22.255Z,39.70
2019-04-22T17:13:57.294Z,39.43
2019-04-22T17:16:56.755Z,38.75
2019-04-22T17:19:59.627Z,38.39
2019-04-22T17:23:13.821Z,38.82
2019-04-22T17:25:52.495Z,39.16
2019-04-22T17:28:25.967Z,39.73
2019-04-22T17:31:01.909Z,39.95
2019-04-22T17:33:37.150Z,39.76
2019-04-22T17:36:12.081Z,39.80
2019-04-22T17:38:56.480Z,40.13
2019-04-22T17:41:32.515Z,39.93
2019-04-22T17:44:25.060Z,40.26
2019-04-22T17:46:51.018Z,40.33
2019-04-22T17:49:50.465Z,40.55
2019-04-22T17:54:51.622Z,40.74
2019-04-22T17:57:27.973Z,40.85
2019-04-22T18:00:06.748Z,41.15
2019-04-22T18:02:32.638Z,41.10
2019-04-22T18:05:02.005Z,41.22
2019-04-22T18:07:49.309Z,41.60
2019-04-22T18:10:32.445Z,41.55
2019-04-22T18:13:08.838Z,41.59
2019-04-22T18:15:40.952Z,41.58
2019-04-22T18:18:18.615Z,41.75
2019-04-22T18:20:48.907Z,41.79
2019-04-22T18:23:12.701Z,41.85
2019-04-22T18:26:01.656Z,41.94
2019-04-22T18:28:42.172Z,42.07
2019-04-22T18:31:07.700Z,42.18
2019-04-22T18:33:43.303Z,42.16
2019-04-22T18:36:19.854Z,42.41
2019-04-22T18:41:30.881Z,42.52
2019-04-22T18:44:11.388Z,42.50
2019-04-22T18:46:40.660Z,42.72
2019-04-22T18:49:16.548Z,43.05
2019-04-22T18:52:10.427Z,43.26
2019-04-22T18:54:56.895Z,43.54
2019-04-22T18:57:41.175Z,43.72
2019-04-22T19:00:07.076Z,44.14
2019-04-22T19:02:49.491Z,44.29
2019-04-22T19:05:28.169Z,44.29
2019-04-22T19:08:18.697Z,44.34
2019-04-22T19:10:57.712Z,44.40
2019-04-22T19:16:12.708Z,44.45
2019-04-22T19:18:39.315Z,44.25
2019-04-22T19:21:12.454Z,44.42
2019-04-22T19:24:01.533Z,44.27
2019-04-22T19:26:55.922Z,44.29
2019-04-22T19:29:21.988Z,44.32
2019-04-22T19:31:56.852Z,44.31
2019-04-22T19:34:32.267Z,44.31
2019-04-22T19:37:10.920Z,44.45
2019-04-22T19:39:52.597Z,44.39
2019-04-22T19:42:25.556Z,44.56
2019-04-22T19:44:55.273Z,44.53
2019-04-22T19:47:38.925Z,44.46
2019-04-22T19:52:44.686Z,44.74
2019-04-22T19:55:23.850Z,44.83
2019-04-22T19:57:57.340Z,44.94
2019-04-22T20:00:41.786Z,45.05
2019-04-22T20:03:48.321Z,45.12
2019-04-22T20:06:28.668Z,45.21
2019-04-22T20:09:06.670Z,45.51
2019-04-22T20:11:41.327Z,45.63
2019-04-22T20:14:12.623Z,45.60
2019-04-22T20:16:46.599Z,45.70
2019-04-22T20:19:33.795Z,45.84
2019-04-22T20:22:03.405Z,45.71
2019-04-22T20:24:22.580Z,45.84
2019-04-22T20:27:16.359Z,45.70
2019-04-22T20:29:47.834Z,45.95
2019-04-22T20:32:22.119Z,45.98
2019-04-22T20:34:57.658Z,46.11
2019-04-22T20:37:35.540Z,46.18
2019-04-22T20:40:09.137Z,46.31
2019-04-22T20:42:48.976Z,46.29
2019-04-22T20:45:15.211Z,46.54
2019-04-22T20:47:43.987Z,46.58
2019-04-22T20:50:32.893Z,46.68
2019-04-22T20:53:08.586Z,46.60
2019-04-22T20:55:36.877Z,46.77
2019-04-22T20:58:12.189Z,46.83
2019-04-22T21:00:40.269Z,46.66
2019-04-22T21:03:15.924Z,46.85
2019-04-22T21:05:49.221Z,46.83
2019-04-22T21:08:38.595Z,47.14
2019-04-22T21:11:04.474Z,47.09
2019-04-22T21:13:46.615Z,47.07
2019-04-22T21:16:22.252Z,47.24
2019-04-22T21:18:47.271Z,47.27
2019-04-22T21:21:31.682Z,47.06
2019-04-22T21:23:58.376Z,47.12
2019-04-22T21:26:42.669Z,46.99
2019-04-22T21:29:13.068Z,47.23
2019-04-22T21:31:59.868Z,47.08
2019-04-22T21:34:26.374Z,46.97
2019-04-22T21:37:12.098Z,47.09
2019-04-22T21:39:36.379Z,47.16
2019-04-22T21:42:14.299Z,47.02
2019-04-22T21:44:44.105Z,47.12
2019-04-22T21:47:28.745Z,46.99
2019-04-22T21:50:19.668Z,47.02
2019-04-22T21:52:33.519Z,47.18
2019-04-22T21:55:14.398Z,47.11
2019-04-22T21:57:57.230Z,47.03
2019-04-22T22:03:17.859Z,47.07
2019-04-22T22:05:37.628Z,47.18
2019-04-22T22:08:23.116Z,47.20
2019-04-22T22:10:52.642Z,47.23
2019-04-22T22:13:32.013Z,47.33
2019-04-22T22:16:04.563Z,47.38
2019-04-22T22:18:30.033Z,47.33
2019-04-22T22:21:33.108Z,47.32
2019-04-22T22:23:52.033Z,47.46
2019-04-22T22:26:18.605Z,47.76
2019-04-22T22:29:05.407Z,47.79
2019-04-22T22:31:41.309Z,47.75
2019-04-22T22:34:09.783Z,47.86
2019-04-22T22:36:36.661Z,47.93
2019-04-22T22:39:08.708Z,48.22
2019-04-22T22:41:34.151Z,48.14
2019-04-22T22:44:17.629Z,48.23
2019-04-22T22:46:58.897Z,48.27
2019-04-22T22:49:40.585Z,48.25
2019-04-22T22:52:40.854Z,48.47
2019-04-22T22:54:46.231Z,48.50
2019-04-22T22:57:27.746Z,48.55
2019-04-22T22:59:58.642Z,48.57
2019-04-22T23:02:59.568Z,48.70
2019-04-22T23:05:16.893Z,48.83
2019-04-22T23:07:55.440Z,48.73
2019-04-22T23:10:25.335Z,48.96
2019-04-22T23:13:02.712Z,48.90
2019-04-22T23:15:27.563Z,48.98
2019-04-22T23:17:54.132Z,48.84
2019-04-22T23:20:36.085Z,49.04
2019-04-22T23:23:29.749Z,49.05
2019-04-22T23:26:07.178Z,48.96
2019-04-22T23:29:02.428Z,48.97
2019-04-22T23:31:39.976Z,48.87
2019-04-22T23:34:24.962Z,48.76
2019-04-22T23:37:21.905Z,48.70
2019-04-22T23:40:09.726Z,48.70
2019-04-22T23:42:33.706Z,48.66
2019-04-22T23:45:13.919Z,48.47
2019-04-22T23:47:39.057Z,48.52
2019-04-22T23:50:29.616Z,48.51
2019-04-22T23:53:00.629Z,48.33
2019-04-22T23:55:36.977Z,48.38
2019-04-22T23:58:07.937Z,48.50
